Time;durP1;ratioP1;P1;durP2;ratioP2;P2;SDS_P1;SDS_P2;PMS_P1;PMS_P2;Temp;Humidity;BMP_temperature;BMP_pressure;BME280_temperature;BME280_humidity;BME280_pressure;Samples;Min_cycle;Max_cycle;Signal;HPM_P1;HPM_P2
2023/10/31 09:35:59;;;;;;;;;3.75;2.50;;;;;;;;5105882;27;13402;-75
2023/10/31 09:38:24;;;;;;;;;3.25;1.75;;;;;;;;5106943;28;9812;-72
2023/10/31 09:40:50;;;;;;;;;0.00;0.00;;;;;;;;5106239;28;8796;-76
2023/10/31 09:43:16;;;;;;;;;1.25;0.75;;;;;;;;5106310;28;9560;-71
2023/10/31 09:45:41;;;;;;;;;2.50;0.00;;;;;;;;5108578;28;8911;-72
2023/10/31 09:48:06;;;;;;;;;2.75;0.00;;;;;;;;5108132;28;8784;-73
2023/10/31 09:50:33;;;;;;;;;1.50;0.00;;;;;;;;5113665;27;8821;-73
2023/10/31 09:52:59;;;;;;;;;0.25;0.25;;;;;;;;5111610;28;8865;-71
2023/10/31 09:55:25;;;;;;;;;0.75;0.00;;;;;;;;5106771;28;9588;-72
2023/10/31 09:57:50;;;;;;;;;6.00;0.75;;;;;;;;5107015;28;9479;-72
2023/10/31 10:00:16;;;;;;;;;1.00;0.00;;;;;;;;5110513;27;8878;-71
2023/10/31 10:02:41;;;;;;;;;1.25;0.00;;;;;;;;5115490;28;8799;-70
2023/10/31 10:05:08;;;;;;;;;0.75;0.00;;;;;;;;5108319;28;8795;-71
2023/10/31 10:07:35;;;;;;;;;6.00;0.00;;;;;;;;5106903;28;8792;-71
2023/10/31 10:10:00;;;;;;;;;2.00;0.75;;;;;;;;5106632;28;10349;-69
2023/10/31 10:12:26;;;;;;;;;1.00;0.00;;;;;;;;5106995;28;9797;-71
2023/10/31 10:14:52;;;;;;;;;0.75;0.00;;;;;;;;5106692;28;8877;-70
2023/10/31 10:17:26;;;;;;;;;1.00;0.00;;;;;;;;5106996;28;8815;-70
2023/10/31 10:20:08;;;;;;;;;0.00;0.00;;;;;;;;5108091;27;8796;-68
2023/10/31 10:22:36;;;;;;;;;2.00;1.00;;;;;;;;5106825;28;9674;-70
2023/10/31 10:25:01;;;;;;;;;2.00;0.50;;;;;;;;5106559;28;9565;-70
2023/10/31 10:27:26;;;;;;;;;1.00;0.33;;;;;;;;5106531;28;9391;-72
2023/10/31 10:29:53;;;;;;;;;1.00;0.00;;;;;;;;5106350;27;8943;-74
2023/10/31 10:32:18;;;;;;;;;2.25;0.75;;;;;;;;5106686;28;8874;-72
2023/10/31 10:34:45;;;;;;;;;1.00;0.00;;;;;;;;5106642;28;9509;-71
2023/10/31 10:37:11;;;;;;;;;2.00;1.00;;;;;;;;5106351;28;8784;-70
2023/10/31 10:39:36;;;;;;;;;0.00;0.00;;;;;;;;5106644;28;9658;-70
2023/10/31 10:42:06;;;;;;;;;0.25;0.00;;;;;;;;5106330;28;8815;-71
2023/10/31 10:44:32;;;;;;;;;1.00;0.00;;;;;;;;5106711;28;8876;-72
2023/10/31 10:46:58;;;;;;;;;0.50;0.00;;;;;;;;5094960;28;10022;-73
2023/10/31 10:49:25;;;;;;;;;0.00;0.00;;;;;;;;5092846;28;8810;-72
2023/10/31 10:52:01;;;;;;;;;1.00;0.00;;;;;;;;5093103;28;11448;-71
2023/10/31 10:54:46;;;;;;;;;2.00;0.00;;;;;;;;5092594;28;9542;-70
2023/10/31 10:57:20;;;;;;;;;0.00;0.00;;;;;;;;5092637;28;9425;-71
2023/10/31 10:59:52;;;;;;;;;0.67;0.00;;;;;;;;5092967;28;9457;-69
2023/10/31 11:02:18;;;;;;;;;0.33;0.00;;;;;;;;5105460;28;9355;-69
2023/10/31 11:04:43;;;;;;;;;0.00;0.00;;;;;;;;5092727;28;9202;-68
2023/10/31 11:07:09;;;;;;;;;1.00;0.00;;;;;;;;5092322;28;8792;-67
2023/10/31 11:09:34;;;;;;;;;2.00;0.00;;;;;;;;5092280;28;8781;-70
2023/10/31 11:12:00;;;;;;;;;0.00;0.00;;;;;;;;5092218;28;8812;-72
2023/10/31 11:14:26;;;;;;;;;2.50;0.00;;;;;;;;5092780;28;8820;-71
2023/10/31 11:16:53;;;;;;;;;0.00;0.00;;;;;;;;5092074;28;9465;-71
2023/10/31 11:19:19;;;;;;;;;1.00;0.00;;;;;;;;5092067;28;11343;-72
2023/10/31 11:22:00;;;;;;;;;0.25;0.00;;;;;;;;5091822;28;9609;-72
2023/10/31 11:24:27;;;;;;;;;1.00;0.00;;;;;;;;5092178;28;9625;-71
2023/10/31 11:26:53;;;;;;;;;1.25;0.00;;;;;;;;5092123;28;9833;-70
2023/10/31 11:29:19;;;;;;;;;0.00;0.00;;;;;;;;5092194;28;9690;-71
2023/10/31 11:31:44;;;;;;;;;1.00;0.00;;;;;;;;5105505;28;9585;-71
2023/10/31 11:34:10;;;;;;;;;1.00;0.00;;;;;;;;5090311;28;8824;-72
2023/10/31 11:36:35;;;;;;;;;6.00;0.00;;;;;;;;5093347;28;9541;-71
2023/10/31 11:39:30;;;;;;;;;0.25;0.00;;;;;;;;5090399;28;8876;-71
2023/10/31 11:41:56;;;;;;;;;0.75;0.75;;;;;;;;5088864;28;8811;-69
2023/10/31 11:44:27;;;;;;;;;2.00;0.25;;;;;;;;5089641;28;9503;-72
2023/10/31 11:46:53;;;;;;;;;0.00;0.00;;;;;;;;5089335;28;8822;-71
2023/10/31 11:49:38;;;;;;;;;0.00;0.00;;;;;;;;5072254;28;9551;-73
2023/10/31 11:52:14;;;;;;;;;1.75;0.00;;;;;;;;5068425;28;9029;-74
2023/10/31 11:54:39;;;;;;;;;2.00;0.00;;;;;;;;5068868;28;10219;-74
2023/10/31 11:57:04;;;;;;;;;0.00;0.00;;;;;;;;5068022;28;9571;-72
2023/10/31 11:59:35;;;;;;;;;1.50;0.50;;;;;;;;5068679;28;8794;-71
2023/10/31 12:02:00;;;;;;;;;0.00;0.00;;;;;;;;5101160;28;8806;-72
2023/10/31 12:04:26;;;;;;;;;4.00;0.00;;;;;;;;5072118;28;9621;-71
2023/10/31 12:07:00;;;;;;;;;1.00;0.00;;;;;;;;5088932;28;8783;-71
2023/10/31 12:09:26;;;;;;;;;0.00;0.00;;;;;;;;5089031;28;8798;-71
2023/10/31 12:11:51;;;;;;;;;0.00;0.00;;;;;;;;5088474;28;9949;-72
2023/10/31 12:14:18;;;;;;;;;0.00;0.00;;;;;;;;5087314;28;8939;-72
2023/10/31 12:16:43;;;;;;;;;0.00;0.00;;;;;;;;5088307;28;8996;-73
2023/10/31 12:19:09;;;;;;;;;0.00;0.00;;;;;;;;5090567;28;9902;-74
2023/10/31 12:21:34;;;;;;;;;1.50;0.00;;;;;;;;5090726;28;8816;-72
2023/10/31 12:24:03;;;;;;;;;0.00;0.00;;;;;;;;5090787;28;8823;-73
2023/10/31 12:26:29;;;;;;;;;5.00;1.75;;;;;;;;5089960;28;8918;-75
2023/10/31 12:29:06;;;;;;;;;0.00;0.00;;;;;;;;5091823;28;10563;-72
2023/10/31 12:31:31;;;;;;;;;0.00;0.00;;;;;;;;5103114;28;8811;-73
2023/10/31 12:33:56;;;;;;;;;0.00;0.00;;;;;;;;5089326;28;9734;-74
2023/10/31 12:36:22;;;;;;;;;0.00;0.00;;;;;;;;5090964;28;8811;-74
2023/10/31 12:38:48;;;;;;;;;2.00;0.00;;;;;;;;5088375;28;8842;-75
2023/10/31 12:41:13;;;;;;;;;0.00;0.00;;;;;;;;5097944;28;8832;-74
2023/10/31 12:43:39;;;;;;;;;0.00;0.00;;;;;;;;5111164;28;9632;-72
2023/10/31 12:46:22;;;;;;;;;1.00;0.00;;;;;;;;5110926;28;9621;-73
2023/10/31 12:48:48;;;;;;;;;1.00;0.00;;;;;;;;5110525;28;8865;-72
2023/10/31 12:51:13;;;;;;;;;0.00;0.00;;;;;;;;5110659;28;9942;-70
2023/10/31 12:53:39;;;;;;;;;0.00;0.00;;;;;;;;5110447;28;8852;-73
2023/10/31 12:56:04;;;;;;;;;0.75;0.00;;;;;;;;5110607;28;8907;-73
2023/10/31 12:58:29;;;;;;;;;1.25;1.00;;;;;;;;5111209;28;8846;-73
2023/10/31 13:00:56;;;;;;;;;0.00;0.00;;;;;;;;5101448;28;8908;-72
2023/10/31 13:03:22;;;;;;;;;2.00;0.00;;;;;;;;5089865;28;8784;-75
2023/10/31 13:05:47;;;;;;;;;0.00;0.00;;;;;;;;5088432;28;9950;-75
2023/10/31 13:08:13;;;;;;;;;0.00;0.00;;;;;;;;5089393;28;9851;-75
2023/10/31 13:10:39;;;;;;;;;0.75;0.75;;;;;;;;5089672;28;8776;-73
2023/10/31 13:13:04;;;;;;;;;1.00;0.00;;;;;;;;5089668;28;10553;-82
2023/10/31 13:15:29;;;;;;;;;0.00;0.00;;;;;;;;5085911;28;8827;-71
2023/10/31 13:17:55;;;;;;;;;0.00;0.00;;;;;;;;5011250;28;11692;-71
2023/10/31 13:20:21;;;;;;;;;0.75;0.00;;;;;;;;5049886;28;9727;-70
2023/10/31 13:22:46;;;;;;;;;0.50;0.00;;;;;;;;5043687;28;8831;-71
2023/10/31 13:25:13;;;;;;;;;1.00;0.00;;;;;;;;5033610;28;8841;-72
2023/10/31 13:27:39;;;;;;;;;0.00;0.00;;;;;;;;5049295;28;8801;-70
2023/10/31 13:30:04;;;;;;;;;0.00;0.00;;;;;;;;5046700;28;9701;-72
2023/10/31 13:32:30;;;;;;;;;1.00;0.00;;;;;;;;5038113;28;8908;-72
2023/10/31 13:34:55;;;;;;;;;0.50;0.00;;;;;;;;5048490;28;11496;-73
2023/10/31 13:37:21;;;;;;;;;0.00;0.00;;;;;;;;5049372;28;8839;-70
2023/10/31 13:39:46;;;;;;;;;0.25;0.25;;;;;;;;5047916;28;8824;-69
2023/10/31 13:42:11;;;;;;;;;0.50;0.50;;;;;;;;5047364;28;8837;-71
2023/10/31 13:44:37;;;;;;;;;0.00;0.00;;;;;;;;5049094;28;8855;-72
2023/10/31 13:47:03;;;;;;;;;0.25;0.00;;;;;;;;5049222;28;8821;-73
2023/10/31 13:49:28;;;;;;;;;2.00;0.00;;;;;;;;5049092;28;8793;-71
2023/10/31 13:51:53;;;;;;;;;0.00;0.00;;;;;;;;5048987;28;8897;-72
2023/10/31 13:54:19;;;;;;;;;0.25;0.25;;;;;;;;5048759;28;8999;-70
2023/10/31 13:56:45;;;;;;;;;0.50;0.00;;;;;;;;5048819;28;8878;-72
2023/10/31 13:59:10;;;;;;;;;1.25;0.00;;;;;;;;5049170;28;8812;-70
2023/10/31 14:01:35;;;;;;;;;0.00;0.00;;;;;;;;5049538;28;9875;-68
2023/10/31 14:04:01;;;;;;;;;0.00;0.00;;;;;;;;5049237;28;8823;-70
2023/10/31 14:06:30;;;;;;;;;0.00;0.00;;;;;;;;5048929;28;8786;-70
2023/10/31 14:08:55;;;;;;;;;0.00;0.00;;;;;;;;5048825;28;8886;-69
2023/10/31 14:11:20;;;;;;;;;1.50;0.50;;;;;;;;5048890;28;9679;-68
2023/10/31 14:13:45;;;;;;;;;0.50;0.00;;;;;;;;5048893;28;8789;-68
2023/10/31 14:16:12;;;;;;;;;0.00;0.00;;;;;;;;5048473;28;8809;-69
2023/10/31 14:18:37;;;;;;;;;2.25;0.25;;;;;;;;5048636;28;8789;-72
2023/10/31 14:21:03;;;;;;;;;3.75;0.00;;;;;;;;5050446;28;10105;-70
2023/10/31 14:23:28;;;;;;;;;1.75;0.00;;;;;;;;5052535;28;8781;-72
2023/10/31 14:25:53;;;;;;;;;0.00;0.00;;;;;;;;5050985;28;11503;-68
2023/10/31 14:28:19;;;;;;;;;0.75;0.00;;;;;;;;5052494;28;8809;-70
2023/10/31 14:30:44;;;;;;;;;1.50;0.00;;;;;;;;5043520;28;8836;-71
2023/10/31 14:33:09;;;;;;;;;0.00;0.00;;;;;;;;5047327;28;8836;-70
2023/10/31 14:35:35;;;;;;;;;1.00;0.00;;;;;;;;5053286;28;8871;-69
2023/10/31 14:38:00;;;;;;;;;2.00;0.00;;;;;;;;5052341;28;8801;-70
2023/10/31 14:40:25;;;;;;;;;0.50;0.00;;;;;;;;5052622;28;8797;-70
2023/10/31 14:42:51;;;;;;;;;1.00;0.00;;;;;;;;5051034;28;8855;-70
2023/10/31 14:45:17;;;;;;;;;0.25;0.00;;;;;;;;5057081;28;8898;-70
2023/10/31 14:47:42;;;;;;;;;2.50;0.00;;;;;;;;5067909;28;9608;-70
2023/10/31 14:50:07;;;;;;;;;1.25;0.00;;;;;;;;5071760;28;9877;-72
2023/10/31 14:52:33;;;;;;;;;2.50;0.00;;;;;;;;5072131;28;8799;-70
2023/10/31 14:54:58;;;;;;;;;1.00;0.00;;;;;;;;5071898;28;8857;-68
2023/10/31 14:57:23;;;;;;;;;1.00;0.00;;;;;;;;5072061;28;8837;-68
2023/10/31 14:59:49;;;;;;;;;0.00;0.00;;;;;;;;5058800;28;8829;-70
2023/10/31 15:02:14;;;;;;;;;0.00;0.00;;;;;;;;5038858;28;8873;-69
2023/10/31 15:04:39;;;;;;;;;0.50;0.50;;;;;;;;5051825;28;8809;-69
2023/10/31 15:07:05;;;;;;;;;0.00;0.00;;;;;;;;5051450;28;8825;-70
2023/10/31 15:09:30;;;;;;;;;2.25;0.25;;;;;;;;5051832;28;8932;-67
2023/10/31 15:11:55;;;;;;;;;0.00;0.00;;;;;;;;5051676;28;8794;-67
2023/10/31 15:14:20;;;;;;;;;1.75;0.00;;;;;;;;5051341;28;8906;-68
2023/10/31 15:16:46;;;;;;;;;0.00;0.00;;;;;;;;5050365;28;8817;-68
2023/10/31 15:19:14;;;;;;;;;0.00;0.00;;;;;;;;5051597;28;8793;-68
2023/10/31 15:21:39;;;;;;;;;1.00;0.00;;;;;;;;5050204;28;8842;-68
2023/10/31 15:24:07;;;;;;;;;2.00;0.75;;;;;;;;5051381;28;9713;-67
2023/10/31 15:26:33;;;;;;;;;0.00;0.00;;;;;;;;5051636;28;8793;-69
2023/10/31 15:28:58;;;;;;;;;0.25;0.25;;;;;;;;5051063;28;9898;-73
2023/10/31 15:31:23;;;;;;;;;2.25;1.00;;;;;;;;5049985;28;8841;-67
2023/10/31 15:33:48;;;;;;;;;1.00;0.75;;;;;;;;5050512;28;8860;-67
2023/10/31 15:36:14;;;;;;;;;0.25;0.25;;;;;;;;5051284;28;8832;-67
2023/10/31 15:38:39;;;;;;;;;0.00;0.00;;;;;;;;5050863;28;8805;-68
2023/10/31 15:41:05;;;;;;;;;5.25;2.25;;;;;;;;5052734;28;8781;-68
2023/10/31 15:43:31;;;;;;;;;0.25;0.00;;;;;;;;5051248;28;8955;-72
2023/10/31 15:45:59;;;;;;;;;0.75;0.75;;;;;;;;5050893;28;8813;-68
2023/10/31 15:48:25;;;;;;;;;1.00;0.00;;;;;;;;5048898;28;8832;-68
2023/10/31 15:50:50;;;;;;;;;1.75;0.75;;;;;;;;5039292;28;9909;-68
2023/10/31 15:53:15;;;;;;;;;0.75;0.00;;;;;;;;5041047;28;8824;-68
2023/10/31 15:55:44;;;;;;;;;2.25;0.75;;;;;;;;5040700;28;8832;-68
2023/10/31 15:58:10;;;;;;;;;2.00;1.00;;;;;;;;5054529;28;8885;-68
2023/10/31 16:00:35;;;;;;;;;4.00;1.50;;;;;;;;5040715;28;10127;-67
2023/10/31 16:03:00;;;;;;;;;0.50;0.00;;;;;;;;5042014;28;8800;-68
2023/10/31 16:05:26;;;;;;;;;0.25;0.25;;;;;;;;5039213;28;8993;-68
2023/10/31 16:07:51;;;;;;;;;3.25;2.00;;;;;;;;5041531;28;8793;-67
2023/10/31 16:10:16;;;;;;;;;2.75;1.00;;;;;;;;5052145;28;8782;-68
2023/10/31 16:12:42;;;;;;;;;9.75;5.00;;;;;;;;5039840;28;8809;-68
2023/10/31 16:15:07;;;;;;;;;6.25;3.75;;;;;;;;5041582;28;8853;-68
2023/10/31 16:17:33;;;;;;;;;4.00;3.00;;;;;;;;5039580;28;8936;-68
2023/10/31 16:19:58;;;;;;;;;3.25;2.25;;;;;;;;5041155;28;8812;-67
2023/10/31 16:22:23;;;;;;;;;4.00;4.00;;;;;;;;5041577;28;8912;-67
2023/10/31 16:24:51;;;;;;;;;3.00;1.25;;;;;;;;5049759;28;8910;-65
2023/10/31 16:27:16;;;;;;;;;2.75;1.00;;;;;;;;5061205;28;8962;-67
2023/10/31 16:29:42;;;;;;;;;2.75;2.75;;;;;;;;5030967;28;10244;-67
2023/10/31 16:32:07;;;;;;;;;3.00;1.00;;;;;;;;5045779;28;9554;-68
2023/10/31 16:34:33;;;;;;;;;2.00;0.00;;;;;;;;5029974;28;8839;-68
2023/10/31 16:36:58;;;;;;;;;1.00;1.00;;;;;;;;5041890;28;8813;-69
2023/10/31 16:39:24;;;;;;;;;3.00;0.00;;;;;;;;5049402;28;8821;-69
2023/10/31 16:41:50;;;;;;;;;3.00;0.50;;;;;;;;5050510;28;8892;-68
2023/10/31 16:44:16;;;;;;;;;3.75;2.00;;;;;;;;5049928;28;8805;-68
2023/10/31 16:46:47;;;;;;;;;1.00;1.00;;;;;;;;5049822;28;10382;-70
2023/10/31 16:49:13;;;;;;;;;1.75;1.75;;;;;;;;5050341;28;8833;-74
2023/10/31 16:51:41;;;;;;;;;4.00;2.00;;;;;;;;5050216;28;10358;-72
2023/10/31 16:54:07;;;;;;;;;3.00;1.00;;;;;;;;5050359;28;8828;-73
2023/10/31 16:56:32;;;;;;;;;4.00;0.25;;;;;;;;5049731;28;10356;-67
2023/10/31 16:58:58;;;;;;;;;1.00;1.00;;;;;;;;5048450;28;8978;-67
2023/10/31 17:01:23;;;;;;;;;0.00;0.00;;;;;;;;5049879;28;9038;-69
2023/10/31 17:03:48;;;;;;;;;1.25;1.00;;;;;;;;5050058;28;8909;-70
2023/10/31 17:06:14;;;;;;;;;0.00;0.00;;;;;;;;5049398;28;9194;-72
2023/10/31 17:08:40;;;;;;;;;2.00;0.75;;;;;;;;5050280;28;8813;-66
2023/10/31 17:11:06;;;;;;;;;3.00;1.00;;;;;;;;5039341;28;8838;-66
2023/10/31 17:13:33;;;;;;;;;1.75;0.25;;;;;;;;5030101;28;8830;-67
2023/10/31 17:16:06;;;;;;;;;2.00;2.00;;;;;;;;5031453;28;10337;-66
2023/10/31 17:18:31;;;;;;;;;2.00;1.00;;;;;;;;5046988;28;10125;-72
2023/10/31 17:20:58;;;;;;;;;2.25;1.00;;;;;;;;5048370;28;10059;-72
2023/10/31 17:23:23;;;;;;;;;1.50;0.75;;;;;;;;5049760;28;8894;-70
2023/10/31 17:25:49;;;;;;;;;3.00;0.25;;;;;;;;5049095;28;10080;-69
2023/10/31 17:28:14;;;;;;;;;2.25;0.75;;;;;;;;5040955;28;8938;-69
2023/10/31 17:30:40;;;;;;;;;2.50;1.75;;;;;;;;5040298;28;8800;-68
2023/10/31 17:33:05;;;;;;;;;1.00;1.00;;;;;;;;5040616;28;8863;-69
2023/10/31 17:35:30;;;;;;;;;1.00;1.00;;;;;;;;5031416;28;8859;-71
2023/10/31 17:37:55;;;;;;;;;1.75;0.75;;;;;;;;5047346;28;8894;-69
2023/10/31 17:40:22;;;;;;;;;2.00;1.00;;;;;;;;5049195;28;9786;-69
2023/10/31 17:42:47;;;;;;;;;3.75;1.00;;;;;;;;5050586;28;8805;-69
2023/10/31 17:45:13;;;;;;;;;2.25;1.00;;;;;;;;5049101;28;10275;-68
2023/10/31 17:47:38;;;;;;;;;1.75;0.25;;;;;;;;5048750;28;8801;-72
2023/10/31 17:50:03;;;;;;;;;1.75;1.00;;;;;;;;5048829;28;8801;-81
2023/10/31 17:52:29;;;;;;;;;0.00;0.00;;;;;;;;5048694;28;8886;-79
2023/10/31 17:54:54;;;;;;;;;0.50;0.50;;;;;;;;5049558;28;8856;-78
2023/10/31 17:57:19;;;;;;;;;4.50;1.00;;;;;;;;5051804;28;8801;-79
2023/10/31 17:59:45;;;;;;;;;2.00;1.00;;;;;;;;5036273;28;8816;-71
2023/10/31 18:02:10;;;;;;;;;1.75;0.75;;;;;;;;5044175;28;8811;-74
2023/10/31 18:04:36;;;;;;;;;2.00;0.25;;;;;;;;5039383;28;8828;-73
2023/10/31 18:07:01;;;;;;;;;0.00;0.00;;;;;;;;5045258;28;8804;-72
2023/10/31 18:09:26;;;;;;;;;0.75;0.75;;;;;;;;5040038;28;8846;-75
2023/10/31 18:11:51;;;;;;;;;1.50;1.00;;;;;;;;5049629;28;8801;-76
2023/10/31 18:14:17;;;;;;;;;3.00;1.00;;;;;;;;5052821;28;8852;-80
2023/10/31 18:16:42;;;;;;;;;2.75;0.75;;;;;;;;5052467;28;8829;-77
2023/10/31 18:19:08;;;;;;;;;0.75;0.75;;;;;;;;5052608;28;8897;-78
2023/10/31 18:21:33;;;;;;;;;3.00;1.00;;;;;;;;5051528;28;8866;-80
2023/10/31 18:23:59;;;;;;;;;8.25;3.25;;;;;;;;5042675;28;10491;-79
2023/10/31 18:26:33;;;;;;;;;3.00;3.00;;;;;;;;5041346;28;8887;-79
2023/10/31 18:29:13;;;;;;;;;4.25;1.50;;;;;;;;5043593;28;8847;-81
2023/10/31 18:31:38;;;;;;;;;0.75;0.75;;;;;;;;5049167;28;10641;-73
2023/10/31 18:34:04;;;;;;;;;1.50;1.50;;;;;;;;5052618;28;10413;-74
2023/10/31 18:36:31;;;;;;;;;2.00;0.00;;;;;;;;5052052;28;8777;-74
2023/10/31 18:38:56;;;;;;;;;1.75;1.75;;;;;;;;5050171;28;8839;-74
2023/10/31 18:41:22;;;;;;;;;2.00;2.00;;;;;;;;5052346;28;10563;-73
2023/10/31 18:43:47;;;;;;;;;1.50;0.25;;;;;;;;5054035;28;8817;-76
2023/10/31 18:46:12;;;;;;;;;5.25;0.25;;;;;;;;5052753;28;8964;-75
2023/10/31 18:48:42;;;;;;;;;0.00;0.00;;;;;;;;5047848;28;8840;-75
2023/10/31 18:51:07;;;;;;;;;3.00;1.00;;;;;;;;5030985;28;8938;-78
2023/10/31 18:53:33;;;;;;;;;2.00;0.00;;;;;;;;5033393;28;10694;-81
2023/10/31 18:55:58;;;;;;;;;0.75;0.75;;;;;;;;5032534;28;8831;-81
2023/10/31 18:58:34;;;;;;;;;1.25;0.25;;;;;;;;5033308;28;9557;-86
2023/10/31 19:00:59;;;;;;;;;2.00;1.00;;;;;;;;5041833;23;8921;-71
2023/10/31 19:03:25;;;;;;;;;1.00;1.00;;;;;;;;4993819;28;10470;-71
2023/10/31 19:05:50;;;;;;;;;3.00;2.00;;;;;;;;4993170;28;8807;-70
2023/10/31 19:08:15;;;;;;;;;1.00;0.00;;;;;;;;4992775;28;8811;-70
2023/10/31 19:10:46;;;;;;;;;2.25;2.00;;;;;;;;4993660;28;8882;-72
2023/10/31 19:13:12;;;;;;;;;3.00;2.00;;;;;;;;4995916;28;8812;-72
2023/10/31 19:15:37;;;;;;;;;1.50;1.50;;;;;;;;4989600;28;10748;-74
2023/10/31 19:18:02;;;;;;;;;3.50;3.00;;;;;;;;4992905;28;8825;-71
2023/10/31 19:20:28;;;;;;;;;1.50;0.00;;;;;;;;4993293;28;8802;-71
2023/10/31 19:22:53;;;;;;;;;2.25;1.00;;;;;;;;4993347;28;8815;-70
2023/10/31 19:25:18;;;;;;;;;5.00;2.00;;;;;;;;4992108;28;8814;-70
